createdAt,value
2019-01-15T00:01:38.417Z,17.73
2019-01-15T00:04:08.115Z,12.47
2019-01-15T00:06:37.904Z,13.37
2019-01-15T00:09:08.074Z,13.50
2019-01-15T00:11:37.842Z,18.40
2019-01-15T00:14:07.623Z,14.53
2019-01-15T00:16:37.366Z,17.47
2019-01-15T00:19:07.123Z,10.60
2019-01-15T00:21:36.847Z,15.87
2019-01-15T00:24:06.614Z,18.13
2019-01-15T00:26:36.311Z,16.30
2019-01-15T00:29:06.049Z,14.00
2019-01-15T00:31:35.896Z,14.17
2019-01-15T00:34:05.596Z,19.70
2019-01-15T00:36:35.374Z,13.67
2019-01-15T00:39:07.438Z,18.63
2019-01-15T00:41:37.186Z,10.67
2019-01-15T00:44:07.007Z,12.90
2019-01-15T00:46:36.787Z,18.47
2019-01-15T00:49:06.529Z,12.63
2019-01-15T00:51:36.287Z,16.27
2019-01-15T00:54:06.037Z,13.27
2019-01-15T00:56:35.831Z,13.97
2019-01-15T00:59:05.679Z,11.70
2019-01-15T01:01:35.504Z,14.50
2019-01-15T01:04:05.685Z,7.23
2019-01-15T01:06:35.438Z,13.07
2019-01-15T01:09:09.129Z,11.53
2019-01-15T01:11:38.974Z,12.70
2019-01-15T01:14:08.716Z,12.87
2019-01-15T01:16:38.475Z,13.57
2019-01-15T01:19:08.251Z,11.40
2019-01-15T01:21:38.111Z,16.87
2019-01-15T01:24:07.959Z,15.43
2019-01-15T01:26:37.774Z,14.83
2019-01-15T01:29:07.454Z,10.27
2019-01-15T01:31:37.226Z,10.03
2019-01-15T01:34:06.925Z,9.73
2019-01-15T01:36:36.730Z,14.03
2019-01-15T01:39:08.316Z,13.73
2019-01-15T01:41:38.076Z,15.57
2019-01-15T01:44:07.835Z,14.20
2019-01-15T01:46:37.628Z,16.60
2019-01-15T01:49:07.375Z,14.50
2019-01-15T01:51:37.131Z,12.27
2019-01-15T01:54:06.916Z,13.10
2019-01-15T01:56:36.799Z,14.87
2019-01-15T01:59:06.534Z,11.87
2019-01-15T02:01:36.314Z,14.37
2019-01-15T02:04:06.103Z,14.40
2019-01-15T02:06:35.856Z,13.60
2019-01-15T02:09:08.034Z,12.37
2019-01-15T02:11:37.797Z,14.67
2019-01-15T02:14:07.700Z,13.67
2019-01-15T02:16:37.465Z,13.17
2019-01-15T02:19:07.248Z,11.60
2019-01-15T02:21:37.006Z,14.60
2019-01-15T02:24:06.815Z,12.20
2019-01-15T02:26:36.586Z,12.23
2019-01-15T02:29:06.366Z,11.27
2019-01-15T02:31:36.098Z,9.33
2019-01-15T02:34:05.937Z,8.60
2019-01-15T02:36:35.704Z,14.00
2019-01-15T02:39:07.883Z,13.17
2019-01-15T02:41:37.686Z,11.90
2019-01-15T02:44:07.540Z,12.07
2019-01-15T02:46:37.237Z,15.90
2019-01-15T02:49:06.994Z,11.80
2019-01-15T02:51:36.847Z,6.97
2019-01-15T02:54:06.610Z,16.90
2019-01-15T02:56:36.400Z,14.10
2019-01-15T02:59:06.110Z,10.67
2019-01-15T03:01:36.062Z,16.00
2019-01-15T03:04:06.181Z,14.43
2019-01-15T03:06:35.966Z,12.97
2019-01-15T03:09:07.772Z,10.03
2019-01-15T03:11:37.612Z,7.77
2019-01-15T03:14:07.448Z,7.30
2019-01-15T03:16:37.210Z,11.50
2019-01-15T03:19:06.970Z,15.80
2019-01-15T03:21:36.698Z,11.80
2019-01-15T03:24:06.461Z,7.17
2019-01-15T03:26:36.149Z,12.70
2019-01-15T03:29:06.098Z,8.43
2019-01-15T03:31:36.034Z,10.00
2019-01-15T03:34:05.763Z,11.10
2019-01-15T03:36:35.599Z,11.13
2019-01-15T03:39:08.122Z,8.50
2019-01-15T03:41:37.920Z,9.90
2019-01-15T03:44:07.823Z,8.83
2019-01-15T03:46:37.633Z,7.47
2019-01-15T03:49:07.525Z,9.63
2019-01-15T03:51:37.336Z,10.73
2019-01-15T03:54:07.099Z,11.60
2019-01-15T03:56:36.914Z,8.83
2019-01-15T03:59:06.755Z,6.30
2019-01-15T04:01:36.527Z,10.70
2019-01-15T04:04:06.373Z,7.90
2019-01-15T04:06:36.225Z,9.93
2019-01-15T04:09:07.768Z,8.73
2019-01-15T04:11:37.601Z,4.97
2019-01-15T04:14:07.870Z,10.33
2019-01-15T04:16:37.741Z,8.80
2019-01-15T04:19:07.556Z,11.77
2019-01-15T04:21:37.386Z,11.30
2019-01-15T04:24:07.158Z,8.83
2019-01-15T04:26:37.071Z,6.30
2019-01-15T04:29:06.890Z,10.20
2019-01-15T04:31:36.665Z,7.90
2019-01-15T04:34:06.440Z,11.73
2019-01-15T04:36:36.195Z,12.13
2019-01-15T04:39:07.760Z,11.57
2019-01-15T04:41:37.522Z,10.63
2019-01-15T04:44:07.427Z,8.03
2019-01-15T04:46:37.140Z,7.33
2019-01-15T04:49:06.824Z,8.80
2019-01-15T04:51:36.627Z,8.20
2019-01-15T04:54:06.530Z,9.27
2019-01-15T04:56:36.581Z,10.23
2019-01-15T04:59:06.430Z,14.30
2019-01-15T05:01:36.349Z,12.13
2019-01-15T05:04:06.090Z,9.07
2019-01-15T05:06:35.866Z,8.50
2019-01-15T05:09:07.581Z,10.50
2019-01-15T05:11:37.476Z,11.50
2019-01-15T05:14:07.174Z,11.10
2019-01-15T05:16:36.896Z,9.57
2019-01-15T05:19:06.645Z,10.77
2019-01-15T05:21:36.444Z,10.47
2019-01-15T05:24:06.177Z,9.40
2019-01-15T05:26:35.968Z,11.80
2019-01-15T05:29:05.741Z,8.70
2019-01-15T05:31:35.453Z,10.33
2019-01-15T05:34:05.320Z,11.17
2019-01-15T05:36:35.141Z,11.53
2019-01-15T05:39:07.247Z,9.43
2019-01-15T05:41:37.088Z,10.07
2019-01-15T05:44:06.788Z,9.27
2019-01-15T05:46:36.570Z,11.53
2019-01-15T05:49:06.350Z,9.67
2019-01-15T05:51:36.758Z,5.43
2019-01-15T05:54:06.651Z,7.57
2019-01-15T05:56:36.561Z,9.13
2019-01-15T05:59:06.380Z,11.90
2019-01-15T06:01:36.261Z,8.83
2019-01-15T06:04:06.037Z,8.97
2019-01-15T06:06:35.774Z,13.97
2019-01-15T06:09:07.906Z,10.40
2019-01-15T06:11:37.882Z,8.37
2019-01-15T06:14:08.676Z,12.07
2019-01-15T06:16:38.367Z,6.93
2019-01-15T06:19:08.070Z,10.57
2019-01-15T06:21:37.950Z,8.73
2019-01-15T06:24:07.784Z,10.23
2019-01-15T06:26:37.551Z,11.00
2019-01-15T06:29:07.763Z,8.80
2019-01-15T06:31:37.691Z,8.70
2019-01-15T06:34:07.428Z,13.90
2019-01-15T06:36:37.216Z,7.33
2019-01-15T06:39:08.518Z,11.73
2019-01-15T06:41:38.271Z,10.77
2019-01-15T06:44:08.065Z,13.30
2019-01-15T06:46:37.908Z,11.77
2019-01-15T06:49:07.716Z,11.60
2019-01-15T06:51:37.490Z,12.03
2019-01-15T06:54:07.311Z,12.53
2019-01-15T06:56:37.182Z,14.73
2019-01-15T06:59:06.948Z,12.07
2019-01-15T07:01:36.763Z,17.13
2019-01-15T07:04:06.468Z,12.07
2019-01-15T07:06:36.210Z,12.70
2019-01-15T07:09:08.264Z,13.60
2019-01-15T07:11:38.071Z,14.60
2019-01-15T07:14:07.769Z,19.63
2019-01-15T07:16:37.587Z,15.47
2019-01-15T07:19:07.427Z,15.57
2019-01-15T07:21:37.264Z,14.90
2019-01-15T07:24:07.075Z,19.40
2019-01-15T07:26:36.829Z,20.40
2019-01-15T07:29:06.617Z,17.00
2019-01-15T07:31:36.394Z,19.57
2019-01-15T07:34:06.159Z,24.17
2019-01-15T07:36:35.961Z,20.80
2019-01-15T07:39:07.833Z,23.40
2019-01-15T07:41:37.585Z,26.20
2019-01-15T07:44:07.420Z,23.47
2019-01-15T07:46:37.967Z,23.47
2019-01-15T07:49:07.830Z,31.50
2019-01-15T07:51:37.611Z,29.77
2019-01-15T07:54:07.388Z,27.90
2019-01-15T07:56:37.274Z,26.07
2019-01-15T07:59:07.109Z,28.60
2019-01-15T08:01:36.954Z,29.57
2019-01-15T08:04:06.753Z,23.40
2019-01-15T08:06:36.784Z,25.07
2019-01-15T08:09:08.800Z,28.77
2019-01-15T08:11:38.734Z,26.63
2019-01-15T08:14:12.206Z,32.53
2019-01-15T08:16:40.122Z,29.87
2019-01-15T08:19:09.918Z,33.47
2019-01-15T08:21:39.685Z,27.40
2019-01-15T08:24:09.499Z,30.33
2019-01-15T08:26:39.429Z,32.00
2019-01-15T08:29:09.220Z,30.47
2019-01-15T08:31:39.020Z,31.90
2019-01-15T08:34:08.904Z,28.43
2019-01-15T08:36:38.650Z,33.03
2019-01-15T08:39:08.902Z,35.53
2019-01-15T08:41:38.694Z,29.43
2019-01-15T08:44:08.560Z,31.63
2019-01-15T08:46:38.364Z,31.50
2019-01-15T08:49:08.199Z,32.73
2019-01-15T08:51:38.493Z,34.67
2019-01-15T08:54:08.586Z,34.37
2019-01-15T08:56:38.537Z,32.33
2019-01-15T08:59:08.515Z,32.00
2019-01-15T09:01:38.335Z,33.57
2019-01-15T09:04:08.147Z,35.63
2019-01-15T09:06:37.985Z,36.07
2019-01-15T09:09:08.225Z,31.30
2019-01-15T09:11:38.082Z,37.00
2019-01-15T09:14:07.919Z,34.30
2019-01-15T09:16:37.694Z,34.67
2019-01-15T09:19:07.621Z,34.20
2019-01-15T09:21:37.574Z,33.17
2019-01-15T09:24:07.306Z,32.07
2019-01-15T09:26:37.189Z,33.23
2019-01-15T09:29:07.195Z,31.07
2019-01-15T09:31:37.000Z,29.17
2019-01-15T09:34:06.728Z,37.37
2019-01-15T09:36:36.555Z,38.53
2019-01-15T09:39:08.280Z,32.87
2019-01-15T09:41:38.887Z,33.60
2019-01-15T09:44:08.636Z,31.73
2019-01-15T09:46:38.401Z,42.50
2019-01-15T09:49:08.263Z,34.80
2019-01-15T09:51:38.130Z,37.27
2019-01-15T09:54:07.976Z,35.47
2019-01-15T09:56:37.961Z,38.53
2019-01-15T09:59:07.777Z,38.13
2019-01-15T10:01:37.590Z,36.57
2019-01-15T10:04:07.422Z,36.40
2019-01-15T10:06:37.277Z,37.67
2019-01-15T10:09:09.556Z,43.03
2019-01-15T10:11:39.477Z,35.77
2019-01-15T10:14:09.255Z,40.07
2019-01-15T10:16:39.079Z,39.17
2019-01-15T10:19:08.880Z,37.93
2019-01-15T10:21:39.856Z,40.80
2019-01-15T10:24:09.689Z,43.10
2019-01-15T10:26:39.448Z,41.33
2019-01-15T10:29:09.230Z,39.70
2019-01-15T10:32:00.299Z,36.50
2019-01-15T10:34:31.595Z,42.93
2019-01-15T10:37:00.173Z,38.30
2019-01-15T10:39:29.944Z,39.30
2019-01-15T10:41:59.728Z,38.10
2019-01-15T10:44:29.608Z,39.33
2019-01-15T10:46:59.350Z,36.20
2019-01-15T10:49:29.283Z,37.47
2019-01-15T10:51:59.056Z,36.53
2019-01-15T10:54:28.775Z,35.57
2019-01-15T10:56:58.534Z,33.37
2019-01-15T10:59:28.335Z,37.57
2019-01-15T11:01:58.039Z,39.67
2019-01-15T11:04:27.861Z,32.40
2019-01-15T11:06:57.662Z,39.90
2019-01-15T11:09:27.573Z,35.93
2019-01-15T11:11:57.639Z,42.00
2019-01-15T11:14:27.535Z,38.23
2019-01-15T11:16:57.657Z,36.70
2019-01-15T11:19:27.556Z,40.67
2019-01-15T11:21:57.460Z,38.20
2019-01-15T11:24:27.156Z,43.03
2019-01-15T11:26:57.066Z,33.47
2019-01-15T11:29:26.866Z,42.37
2019-01-15T11:31:56.686Z,32.57
2019-01-15T11:34:26.612Z,38.50
2019-01-15T11:36:56.527Z,33.33
2019-01-15T11:39:26.257Z,33.57
2019-01-15T11:41:56.102Z,32.13
2019-01-15T11:44:27.111Z,32.47
2019-01-15T11:46:57.121Z,36.20
2019-01-15T11:49:26.925Z,32.83
2019-01-15T11:51:56.944Z,30.20
2019-01-15T11:54:26.690Z,33.90
2019-01-15T11:56:56.653Z,33.47
2019-01-15T11:59:26.826Z,29.43
2019-01-15T12:01:57.531Z,34.40
2019-01-15T12:04:28.968Z,34.60
2019-01-15T12:07:09.375Z,32.10
2019-01-15T12:09:40.787Z,33.27
2019-01-15T12:12:12.224Z,29.90
2019-01-15T12:14:59.570Z,29.80
2019-01-15T12:17:34.160Z,35.93
2019-01-15T12:20:12.325Z,30.97
2019-01-15T12:22:46.429Z,31.67
2019-01-15T12:25:29.615Z,30.43
2019-01-15T12:28:03.923Z,31.87
2019-01-15T12:30:44.432Z,26.33
2019-01-15T12:33:18.616Z,32.23
2019-01-15T12:35:58.847Z,26.30
2019-01-15T12:38:30.256Z,29.53
2019-01-15T12:41:01.591Z,28.37
2019-01-15T12:43:50.368Z,29.30
2019-01-15T12:46:33.726Z,28.97
2019-01-15T12:49:22.909Z,27.20
2019-01-15T12:52:00.269Z,22.37
2019-01-15T12:54:31.914Z,24.83
2019-01-15T12:57:09.129Z,26.23
2019-01-15T12:59:46.478Z,25.43
2019-01-15T13:02:34.038Z,20.73
2019-01-15T13:05:15.010Z,25.70
2019-01-15T13:08:02.662Z,25.13
2019-01-15T13:10:46.176Z,20.40
2019-01-15T13:13:23.359Z,21.33
2019-01-15T13:16:14.076Z,23.83
2019-01-15T13:18:48.132Z,19.10
2019-01-15T13:21:19.515Z,19.43
2019-01-15T13:23:53.565Z,20.93
2019-01-15T13:26:27.925Z,19.13
2019-01-15T13:29:13.963Z,19.20
2019-01-15T13:31:48.132Z,19.27
2019-01-15T13:34:25.267Z,23.33
2019-01-15T13:36:59.467Z,19.07
2019-01-15T13:39:36.999Z,17.67
2019-01-15T13:42:11.164Z,19.70
2019-01-15T13:44:57.810Z,17.17
2019-01-15T13:47:29.421Z,20.93
2019-01-15T13:50:03.707Z,17.43
2019-01-15T13:52:43.620Z,17.80
2019-01-15T13:55:18.100Z,15.37
2019-01-15T13:57:49.576Z,17.63
2019-01-15T14:00:33.053Z,17.10
2019-01-15T14:03:13.095Z,18.47
2019-01-15T14:05:56.436Z,19.13
2019-01-15T14:08:33.857Z,16.50
2019-01-15T14:11:08.139Z,16.83
2019-01-15T14:13:51.291Z,14.60
2019-01-15T14:16:22.667Z,17.80
2019-01-15T14:18:58.022Z,17.17
2019-01-15T14:21:32.759Z,15.50
2019-01-15T14:24:04.143Z,13.83
2019-01-15T14:26:35.571Z,15.80
2019-01-15T14:29:09.581Z,17.17
2019-01-15T14:31:49.850Z,18.67
2019-01-15T14:34:37.174Z,18.23
2019-01-15T14:37:11.283Z,17.37
2019-01-15T14:39:45.518Z,16.87
2019-01-15T14:42:16.998Z,12.90
2019-01-15T14:44:48.397Z,13.57
2019-01-15T14:47:35.870Z,16.97
2019-01-15T14:50:25.051Z,17.47
2019-01-15T14:52:56.405Z,17.20
2019-01-15T14:55:30.727Z,13.33
2019-01-15T14:58:02.280Z,17.83
2019-01-15T15:00:51.356Z,15.30
2019-01-15T15:03:28.640Z,15.47
2019-01-15T15:06:00.135Z,15.90
2019-01-15T15:08:36.781Z,15.33
2019-01-15T15:11:17.070Z,19.33
2019-01-15T15:13:57.171Z,16.10
2019-01-15T15:16:31.390Z,14.20
2019-01-15T15:19:14.792Z,18.37
2019-01-15T15:22:02.405Z,15.87
2019-01-15T15:24:45.223Z,18.90
2019-01-15T15:27:19.537Z,13.83
2019-01-15T15:30:02.778Z,17.33
2019-01-15T15:32:45.986Z,16.90
2019-01-15T15:35:17.415Z,15.60
2019-01-15T15:38:05.042Z,15.73
2019-01-15T15:40:42.258Z,16.20
2019-01-15T15:43:29.321Z,12.90
2019-01-15T15:46:10.924Z,16.03
2019-01-15T15:48:52.060Z,15.73
2019-01-15T15:51:38.597Z,14.20
2019-01-15T15:54:12.465Z,15.73
2019-01-15T15:56:43.832Z,13.73
2019-01-15T15:59:15.280Z,25.70
2019-01-15T16:01:52.625Z,15.87
2019-01-15T16:04:24.130Z,14.20
2019-01-15T16:07:11.425Z,15.57
2019-01-15T16:09:42.799Z,15.73
2019-01-15T16:12:17.267Z,17.90
2019-01-15T16:15:04.701Z,15.67
2019-01-15T16:17:39.039Z,16.83
2019-01-15T16:20:11.194Z,18.63
2019-01-15T16:23:00.238Z,18.17
2019-01-15T16:25:34.444Z,20.33
2019-01-15T16:28:09.706Z,14.90
2019-01-15T16:30:49.893Z,16.67
2019-01-15T16:33:26.984Z,19.80
2019-01-15T16:36:01.350Z,19.87
2019-01-15T16:38:32.731Z,19.47
2019-01-15T16:41:09.893Z,17.77
2019-01-15T16:43:44.327Z,20.03
2019-01-15T16:46:34.049Z,19.73
2019-01-15T16:49:21.717Z,17.97
2019-01-15T16:52:02.904Z,20.17
2019-01-15T16:54:46.396Z,20.13
2019-01-15T16:57:17.810Z,18.60
2019-01-15T16:59:59.043Z,23.30
2019-01-15T17:02:30.445Z,21.00
2019-01-15T17:05:05.043Z,25.27
2019-01-15T17:07:56.793Z,21.77
2019-01-15T17:10:31.227Z,19.47
2019-01-15T17:13:17.749Z,24.80
2019-01-15T17:16:01.206Z,19.23
2019-01-15T17:18:38.399Z,22.37
2019-01-15T17:21:21.870Z,19.33
2019-01-15T17:23:53.230Z,20.90
2019-01-15T17:26:24.528Z,21.10
2019-01-15T17:28:58.632Z,22.63
2019-01-15T17:31:30.190Z,19.77
2019-01-15T17:34:17.678Z,22.93
2019-01-15T17:36:57.868Z,25.33
2019-01-15T17:39:32.340Z,20.60
2019-01-15T17:42:03.744Z,22.53
2019-01-15T17:44:41.263Z,18.83
2019-01-15T17:47:28.608Z,22.73
2019-01-15T17:50:05.872Z,22.53
2019-01-15T17:52:43.615Z,23.00
2019-01-15T17:55:13.407Z,22.67
2019-01-15T17:57:56.408Z,23.23
2019-01-15T18:00:36.979Z,23.67
2019-01-15T18:03:08.360Z,18.57
2019-01-15T18:05:39.712Z,21.80
2019-01-15T18:08:19.897Z,22.07
2019-01-15T18:11:00.422Z,24.90
2019-01-15T18:13:48.216Z,22.67
2019-01-15T18:16:28.428Z,23.20
2019-01-15T18:19:00.505Z,21.67
2019-01-15T18:21:47.723Z,20.50
2019-01-15T18:24:33.961Z,23.70
2019-01-15T18:27:08.321Z,23.50
2019-01-15T18:29:57.921Z,22.13
2019-01-15T18:32:41.166Z,26.70
2019-01-15T18:35:12.580Z,25.37
2019-01-15T18:37:43.955Z,23.77
2019-01-15T18:40:15.370Z,29.43
2019-01-15T18:43:02.961Z,23.03
2019-01-15T18:45:43.154Z,23.60
2019-01-15T18:48:23.257Z,23.30
2019-01-15T18:51:03.603Z,26.10
2019-01-15T18:53:40.969Z,25.23
2019-01-15T18:56:12.367Z,26.57
2019-01-15T18:58:59.720Z,28.77
2019-01-15T19:01:31.171Z,29.90
2019-01-15T19:04:18.793Z,28.73
2019-01-15T19:06:50.183Z,31.67
2019-01-15T19:09:39.672Z,29.10
2019-01-15T19:12:26.871Z,26.80
2019-01-15T19:14:58.232Z,24.27
2019-01-15T19:17:45.834Z,24.77
2019-01-15T19:20:17.212Z,28.03
2019-01-15T19:22:48.517Z,28.23
2019-01-15T19:25:31.990Z,25.87
2019-01-15T19:28:03.263Z,29.93
2019-01-15T19:30:34.604Z,28.53
2019-01-15T19:33:11.995Z,27.47
2019-01-15T19:35:49.082Z,28.20
2019-01-15T19:38:26.209Z,28.90
2019-01-15T19:41:13.589Z,29.93
2019-01-15T19:43:44.922Z,27.37
2019-01-15T19:46:16.180Z,26.00
2019-01-15T19:48:47.625Z,27.97
2019-01-15T19:51:19.065Z,31.30
2019-01-15T19:53:50.529Z,25.60
2019-01-15T19:56:21.947Z,30.27
2019-01-15T19:59:05.343Z,28.33
2019-01-15T20:01:53.142Z,30.27
2019-01-15T20:04:33.510Z,28.23
2019-01-15T20:07:17.041Z,28.13
2019-01-15T20:09:48.392Z,28.83
2019-01-15T20:12:19.710Z,27.17
2019-01-15T20:15:07.187Z,24.93
2019-01-15T20:17:41.369Z,23.17
2019-01-15T20:20:29.221Z,23.20
2019-01-15T20:23:03.535Z,22.40
2019-01-15T20:25:46.902Z,23.37
2019-01-15T20:28:18.332Z,20.43
2019-01-15T20:30:55.690Z,20.87
2019-01-15T20:33:29.771Z,19.03
2019-01-15T20:36:01.113Z,19.60
2019-01-15T20:38:38.657Z,18.20
2019-01-15T20:41:10.018Z,22.73
2019-01-15T20:43:57.475Z,21.17
2019-01-15T20:46:43.966Z,19.93
2019-01-15T20:49:23.734Z,20.47
2019-01-15T20:51:58.556Z,22.27
2019-01-15T20:54:35.643Z,22.03
2019-01-15T20:57:23.136Z,20.43
2019-01-15T21:00:12.672Z,19.33
2019-01-15T21:02:44.093Z,23.13
2019-01-15T21:05:31.746Z,22.07
2019-01-15T21:08:05.537Z,21.20
2019-01-15T21:10:53.225Z,22.40
2019-01-15T21:13:24.567Z,20.00
2019-01-15T21:15:56.049Z,22.43
2019-01-15T21:18:27.653Z,19.50
2019-01-15T21:21:10.831Z,22.90
2019-01-15T21:23:42.190Z,21.33
2019-01-15T21:26:25.403Z,22.90
2019-01-15T21:28:56.841Z,26.93
2019-01-15T21:31:46.029Z,27.30
2019-01-15T21:34:20.087Z,26.47
2019-01-15T21:36:54.388Z,27.70
2019-01-15T21:39:31.353Z,25.50
2019-01-15T21:42:02.719Z,26.27
2019-01-15T21:44:42.897Z,26.73
2019-01-15T21:47:14.391Z,28.77
2019-01-15T21:49:45.807Z,30.73
2019-01-15T21:52:17.210Z,27.83
2019-01-15T21:54:51.115Z,31.87
2019-01-15T21:57:28.576Z,33.37
2019-01-15T22:00:18.100Z,37.27
2019-01-15T22:02:58.268Z,38.03
2019-01-15T22:05:45.992Z,44.03
2019-01-15T22:08:33.585Z,36.83
2019-01-15T22:11:08.109Z,39.23
2019-01-15T22:13:39.600Z,40.73
2019-01-15T22:16:26.815Z,43.77
2019-01-15T22:19:16.099Z,39.53
2019-01-15T22:22:03.558Z,41.77
2019-01-15T22:24:34.997Z,39.07
2019-01-15T22:27:12.745Z,37.63
2019-01-15T22:29:47.189Z,37.40
2019-01-15T22:32:21.003Z,39.43
2019-01-15T22:34:57.439Z,40.37
2019-01-15T22:37:29.263Z,35.90
2019-01-15T22:40:16.368Z,33.37
2019-01-15T22:42:50.233Z,34.07
2019-01-15T22:45:30.683Z,34.53
2019-01-15T22:48:18.060Z,38.00
2019-01-15T22:51:07.637Z,32.37
2019-01-15T22:53:50.964Z,34.50
2019-01-15T22:56:31.294Z,31.80
2019-01-15T22:59:08.398Z,37.13
2019-01-15T23:01:42.576Z,41.80
2019-01-15T23:04:13.937Z,37.00
2019-01-15T23:06:54.283Z,37.70
2019-01-15T23:09:28.385Z,40.70
2019-01-15T23:12:05.487Z,35.17
2019-01-15T23:14:39.881Z,36.10
2019-01-15T23:17:17.398Z,36.50
2019-01-15T23:20:04.679Z,37.80
2019-01-15T23:22:48.328Z,36.20
2019-01-15T23:25:19.936Z,41.47
2019-01-15T23:27:51.738Z,38.77
2019-01-15T23:30:23.119Z,38.90
2019-01-15T23:32:57.148Z,36.70
2019-01-15T23:35:37.482Z,37.50
2019-01-15T23:38:23.695Z,37.07
2019-01-15T23:41:03.583Z,37.50
2019-01-15T23:43:37.881Z,36.27
2019-01-15T23:46:27.487Z,36.57
2019-01-15T23:49:01.356Z,35.90
2019-01-15T23:51:38.412Z,36.60
2019-01-15T23:54:09.750Z,34.93
2019-01-15T23:56:41.150Z,37.63
2019-01-15T23:59:12.593Z,34.97
